^^
Saratoga-Weather Station Historical Data
Daily Summary for June 18, 2020 Units:  Metric    English   Both
Daily Weekly Monthly Yearly Custom
  High: Low: Average:
Temperature: 16.4 °C 5.2 °C 10.1 °C
Dew Point: 10.7 °C 4.5 °C 6.9 °C
Humidity: 96% 54% 82%
Wind Speed: 13km/h 0km/h 1.5km/h
Wind Gust: 16.1km/h - -
Wind- - SSW
Pressure: 1029.5 hPa 1025.1 hPa -
Precipitation: 0.0 mm    
Historical Graphs
 
 
Tabular Data for June 18, 2020
Time Temperature Dew Point Pressure Wind Wind Speed Wind Gust Humidity Rainfall Rate (Hourly) solar
00:00 7.8 °C 6.3 °C 1029.5 hPa Calm     90% 0.0 mm 0 W/m2
00:05 7.7 °C 6.2 °C 1029.5 hPa Calm     90% 0.0 mm 0 W/m2
00:10 7.6 °C 6.2 °C 1029.5 hPa Calm     91% 0.0 mm 0 W/m2
00:15 7.6 °C 6.2 °C 1029.5 hPa Calm     91% 0.0 mm 0 W/m2
00:20 7.6 °C 6.2 °C 1029.5 hPa Calm     91% 0.0 mm 0 W/m2
00:25 7.4 °C 6 °C 1029.5 hPa Calm     91% 0.0 mm 0 W/m2
00:30 7.4 °C 6 °C 1029.5 hPa Calm     91% 0.0 mm 0 W/m2
00:35 7.3 °C 6.1 °C 1029.5 hPa Calm     92% 0.0 mm 0 W/m2
00:40 7.3 °C 6.1 °C 1029.5 hPa West 1.4 km/h 3.2 km/h 92% 0.0 mm 0 W/m2
00:45 7.3 °C 6.1 °C 1029.5 hPa West 1.4 km/h 3.2 km/h 92% 0.0 mm 0 W/m2
00:50 7.4 °C 6.2 °C 1029.1 hPa Calm     92% 0.0 mm 0 W/m2
00:55 7.3 °C 6.1 °C 1029.1 hPa Calm     92% 0.0 mm 0 W/m2
01:00 7.3 °C 6.1 °C 1029.1 hPa Calm     92% 0.0 mm 0 W/m2
01:05 7.2 °C 6 °C 1029.1 hPa Calm     92% 0.0 mm 0 W/m2
01:10 7.2 °C 6 °C 1029.1 hPa Calm     92% 0.0 mm 0 W/m2
01:15 7.1 °C 6 °C 1029.1 hPa Calm     93% 0.0 mm 0 W/m2
01:20 7.1 °C 6 °C 1029.1 hPa Calm     93% 0.0 mm 0 W/m2
01:25 7.1 °C 6 °C 1029.1 hPa Calm     93% 0.0 mm 0 W/m2
01:30 6.9 °C 5.8 °C 1029.1 hPa Calm     93% 0.0 mm 0 W/m2
01:35 6.9 °C 5.8 °C 1029.1 hPa West 1.4 km/h 1.6 km/h 93% 0.0 mm 0 W/m2
01:40 6.8 °C 5.7 °C 1029.1 hPa Calm   1.6 km/h 93% 0.0 mm 0 W/m2
01:45 6.8 °C 5.7 °C 1029.1 hPa Calm     93% 0.0 mm 0 W/m2
01:50 6.7 °C 5.6 °C 1028.8 hPa Calm   1.6 km/h 93% 0.0 mm 0 W/m2
01:55 6.7 °C 5.6 °C 1029.1 hPa Calm     93% 0.0 mm 0 W/m2
02:00 6.6 °C 5.5 °C 1029.1 hPa Calm     93% 0.0 mm 0 W/m2
02:05 6.5 °C 5.4 °C 1028.8 hPa Calm     93% 0.0 mm 0 W/m2
02:10 6.4 °C 5.4 °C 1028.8 hPa Calm     93% 0.0 mm 0 W/m2
02:15 6.3 °C 5.3 °C 1028.8 hPa Calm     93% 0.0 mm 0 W/m2
02:20 6.2 °C 5.2 °C 1028.8 hPa Calm     93% 0.0 mm 0 W/m2
02:25 6.2 °C 5.2 °C 1028.8 hPa Calm     93% 0.0 mm 0 W/m2
02:30 6.2 °C 5.3 °C 1028.8 hPa Calm     94% 0.0 mm 0 W/m2
02:35 6.1 °C 5.2 °C 1028.8 hPa Calm     94% 0.0 mm 0 W/m2
02:40 6 °C 5.1 °C 1028.8 hPa Calm     94% 0.0 mm 0 W/m2
02:45 5.9 °C 5 °C 1028.8 hPa Calm     94% 0.0 mm 0 W/m2
02:50 5.8 °C 4.9 °C 1028.8 hPa Calm     94% 0.0 mm 0 W/m2
02:55 5.8 °C 4.9 °C 1028.8 hPa Calm     94% 0.0 mm 0 W/m2
03:01 5.8 °C 4.9 °C 1028.8 hPa Calm     94% 0.0 mm 0 W/m2
03:06 5.8 °C 4.9 °C 1028.8 hPa Calm     94% 0.0 mm 0 W/m2
03:11 5.8 °C 4.9 °C 1028.8 hPa West 1.4 km/h 1.6 km/h 94% 0.0 mm 0 W/m2
03:16 5.9 °C 5.2 °C 1028.8 hPa Calm   3.2 km/h 95% 0.0 mm 0 W/m2
03:21 5.9 °C 5.2 °C 1028.8 hPa Calm     95% 0.0 mm 0 W/m2
03:26 6 °C 5.3 °C 1028.8 hPa Calm     95% 0.0 mm 0 W/m2
03:31 6.1 °C 5.4 °C 1028.8 hPa Calm     95% 0.0 mm 0 W/m2
03:36 6.1 °C 5.4 °C 1028.8 hPa Calm     95% 0.0 mm 0 W/m2
03:41 6.2 °C 5.5 °C 1028.8 hPa Calm     95% 0.0 mm 0 W/m2
03:46 6.2 °C 5.5 °C 1028.8 hPa Calm     95% 0.0 mm 0 W/m2
03:51 6.4 °C 5.7 °C 1028.5 hPa Calm     95% 0.0 mm 0 W/m2
03:56 6.7 °C 6.1 °C 1028.5 hPa Calm     96% 0.0 mm 0 W/m2
04:01 6.9 °C 6.3 °C 1028.5 hPa Calm   1.6 km/h 96% 0.0 mm 0 W/m2
04:06 7.1 °C 6.5 °C 1028.5 hPa Calm   1.6 km/h 96% 0.0 mm 0 W/m2
04:11 7.1 °C 6.5 °C 1028.5 hPa Calm     96% 0.0 mm 0 W/m2
04:16 7.1 °C 6.4 °C 1028.5 hPa Calm     95% 0.0 mm 0 W/m2
04:21 7 °C 6.3 °C 1028.5 hPa Calm     95% 0.0 mm 0 W/m2
04:26 6.9 °C 6.2 °C 1028.5 hPa Calm     95% 0.0 mm 0 W/m2
04:31 6.8 °C 6.1 °C 1028.5 hPa Calm     95% 0.0 mm 0 W/m2
04:36 6.7 °C 5.8 °C 1028.5 hPa Calm     94% 0.0 mm 0 W/m2
04:41 6.5 °C 5.6 °C 1028.5 hPa Calm     94% 0.0 mm 0 W/m2
04:46 6.4 °C 5.5 °C 1028.5 hPa Calm     94% 0.0 mm 0 W/m2
04:51 6.3 °C 5.4 °C 1028.5 hPa Calm     94% 0.0 mm 0 W/m2
04:56 6.2 °C 5.5 °C 1028.5 hPa Calm     95% 0.0 mm 0 W/m2
05:01 6.1 °C 5.2 °C 1028.5 hPa Calm     94% 0.0 mm 0 W/m2
05:06 6 °C 5.1 °C 1028.5 hPa Calm     94% 0.0 mm 0 W/m2
05:11 5.9 °C 5.2 °C 1028.5 hPa Calm     95% 0.0 mm 0 W/m2
05:16 5.8 °C 5.1 °C 1028.5 hPa Calm     95% 0.0 mm 0 W/m2
05:21 5.8 °C 5.1 °C 1028.5 hPa Calm     95% 0.0 mm 0 W/m2
05:26 5.7 °C 5 °C 1028.5 hPa Calm     95% 0.0 mm 0 W/m2
05:31 5.7 °C 5 °C 1028.5 hPa Calm     95% 0.0 mm 0 W/m2
05:36 5.7 °C 5 °C 1028.5 hPa Calm     95% 0.0 mm 0 W/m2
05:42 5.6 °C 4.9 °C 1028.5 hPa Calm     95% 0.0 mm 0 W/m2
05:47 5.6 °C 4.9 °C 1028.5 hPa Calm     95% 0.0 mm 0 W/m2
05:52 5.4 °C 4.7 °C 1028.5 hPa Calm     95% 0.0 mm 0 W/m2
05:57 5.4 °C 4.7 °C 1028.5 hPa Calm     95% 0.0 mm 0 W/m2
06:02 5.4 °C 4.7 °C 1028.5 hPa Calm     95% 0.0 mm 0 W/m2
06:07 5.4 °C 4.7 °C 1028.5 hPa Calm     95% 0.0 mm 0 W/m2
06:12 5.3 °C 4.6 °C 1028.5 hPa Calm     95% 0.0 mm 0 W/m2
06:22 5.2 °C 4.5 °C 1028.5 hPa Calm     95% 0.0 mm 0 W/m2
06:27 5.2 °C 4.5 °C 1028.8 hPa Calm     95% 0.0 mm 0 W/m2
06:32 5.2 °C 4.5 °C 1028.8 hPa Calm     95% 0.0 mm 0 W/m2
06:38 5.2 °C 4.6 °C 1028.8 hPa Calm     96% 0.0 mm 0 W/m2
06:43 5.2 °C 4.6 °C 1028.8 hPa Calm     96% 0.0 mm 0 W/m2
06:48 5.3 °C 4.7 °C 1028.8 hPa Calm     96% 0.0 mm 5 W/m2
06:53 5.3 °C 4.7 °C 1028.8 hPa Calm     96% 0.0 mm 7 W/m2
06:58 5.4 °C 4.8 °C 1028.8 hPa Calm     96% 0.0 mm 9 W/m2
07:03 5.6 °C 5 °C 1028.8 hPa Calm     96% 0.0 mm 12 W/m2
07:07 5.6 °C 5 °C 1028.8 hPa West 1.4 km/h 1.6 km/h 96% 0.0 mm 14 W/m2
07:13 5.7 °C 5.1 °C 1028.8 hPa West 1.4 km/h 1.6 km/h 96% 0.0 mm 18 W/m2
07:18 5.8 °C 5.2 °C 1028.8 hPa West 1.4 km/h 1.6 km/h 96% 0.0 mm 23 W/m2
07:23 5.9 °C 5.3 °C 1028.8 hPa Calm     96% 0.0 mm 28 W/m2
07:28 5.9 °C 5.3 °C 1028.8 hPa Calm     96% 0.0 mm 32 W/m2
07:33 6.1 °C 5.5 °C 1028.8 hPa Calm     96% 0.0 mm 39 W/m2
07:38 6.2 °C 5.6 °C 1028.8 hPa Calm   1.6 km/h 96% 0.0 mm 44 W/m2
07:43 6.2 °C 5.6 °C 1028.8 hPa West 1.4 km/h 1.6 km/h 96% 0.0 mm 58 W/m2
07:48 6.3 °C 5.7 °C 1028.8 hPa East 3.2 km/h 6.4 km/h 96% 0.0 mm 70 W/m2
07:53 6.4 °C 5.8 °C 1028.8 hPa East 6.4 km/h 6.4 km/h 96% 0.0 mm 77 W/m2
07:58 6.5 °C 5.9 °C 1028.8 hPa East 3.2 km/h 3.2 km/h 96% 0.0 mm 77 W/m2
08:03 6.6 °C 6 °C 1029.1 hPa East 1.4 km/h 1.6 km/h 96% 0.0 mm 74 W/m2
08:09 6.7 °C 6.1 °C 1029.1 hPa Calm     96% 0.0 mm 84 W/m2
08:14 6.8 °C 6.2 °C 1029.1 hPa Calm     96% 0.0 mm 91 W/m2
08:19 6.9 °C 6.3 °C 1029.1 hPa Calm     96% 0.0 mm 120 W/m2
08:24 7.1 °C 6.5 °C 1029.1 hPa Calm     96% 0.0 mm 127 W/m2
08:29 7.2 °C 6.6 °C 1029.1 hPa Calm     96% 0.0 mm 160 W/m2
08:34 7.4 °C 6.8 °C 1029.1 hPa Calm     96% 0.0 mm 134 W/m2
08:39 7.6 °C 7 °C 1029.1 hPa Calm   1.6 km/h 96% 0.0 mm 181 W/m2
08:44 7.9 °C 7.3 °C 1029.1 hPa East 3.2 km/h 3.2 km/h 96% 0.0 mm 211 W/m2
08:49 8.2 °C 7.4 °C 1029.1 hPa East 1.4 km/h 3.2 km/h 95% 0.0 mm 176 W/m2
08:54 8.4 °C 7.6 °C 1029.1 hPa NE 3.2 km/h 4.8 km/h 95% 0.0 mm 174 W/m2
08:59 8.6 °C 7.7 °C 1029.1 hPa East 1.4 km/h 4.8 km/h 94% 0.0 mm 186 W/m2
09:04 8.7 °C 7.6 °C 1029.1 hPa East 3.2 km/h 3.2 km/h 93% 0.0 mm 178 W/m2
09:09 8.8 °C 7.7 °C 1029.1 hPa ENE 1.4 km/h 4.8 km/h 93% 0.0 mm 185 W/m2
09:14 8.8 °C 7.6 °C 1029.1 hPa ENE 3.2 km/h 4.8 km/h 92% 0.0 mm 195 W/m2
09:19 8.9 °C 7.7 °C 1029.1 hPa Calm   1.6 km/h 92% 0.0 mm 211 W/m2
09:24 9.1 °C 7.9 °C 1029.1 hPa ENE 1.4 km/h 4.8 km/h 92% 0.0 mm 221 W/m2
09:29 9.3 °C 7.9 °C 1029.1 hPa ENE 1.4 km/h 3.2 km/h 91% 0.0 mm 227 W/m2
09:34 9.5 °C 8.1 °C 1029.1 hPa Calm   3.2 km/h 91% 0.0 mm 209 W/m2
09:39 9.8 °C 8.4 °C 1028.8 hPa NE 1.4 km/h 1.6 km/h 91% 0.0 mm 206 W/m2
09:44 9.9 °C 8.2 °C 1028.8 hPa Calm   4.8 km/h 89% 0.0 mm 213 W/m2
09:49 10.1 °C 8.4 °C 1028.8 hPa East 3.2 km/h 3.2 km/h 89% 0.0 mm 204 W/m2
09:54 10.2 °C 8.5 °C 1029.1 hPa Calm   4.8 km/h 89% 0.0 mm 188 W/m2
09:59 10.3 °C 8.4 °C 1029.1 hPa East 1.4 km/h 3.2 km/h 88% 0.0 mm 186 W/m2
10:04 10.5 °C 8.6 °C 1028.8 hPa Calm     88% 0.0 mm 195 W/m2
10:09 10.6 °C 8.5 °C 1028.8 hPa ESE 1.4 km/h 4.8 km/h 87% 0.0 mm 192 W/m2
10:14 10.8 °C 8.7 °C 1028.8 hPa ENE 3.2 km/h 3.2 km/h 87% 0.0 mm 190 W/m2
10:19 10.9 °C 8.8 °C 1028.8 hPa ENE 1.4 km/h 3.2 km/h 87% 0.0 mm 197 W/m2
10:24 11 °C 8.9 °C 1028.8 hPa NE 1.4 km/h 3.2 km/h 87% 0.0 mm 202 W/m2
10:29 11.1 °C 8.8 °C 1028.8 hPa East 3.2 km/h 4.8 km/h 86% 0.0 mm 199 W/m2
10:34 11.2 °C 8.9 °C 1028.8 hPa ENE 3.2 km/h 4.8 km/h 86% 0.0 mm 204 W/m2
10:40 11.3 °C 9 °C 1028.8 hPa SE 3.2 km/h 4.8 km/h 86% 0.0 mm 204 W/m2
10:45 11.5 °C 9.2 °C 1028.8 hPa ESE 1.4 km/h 3.2 km/h 86% 0.0 mm 207 W/m2
10:50 11.6 °C 9.3 °C 1028.8 hPa ESE 3.2 km/h 4.8 km/h 86% 0.0 mm 211 W/m2
10:55 11.8 °C 9.4 °C 1028.8 hPa East 1.4 km/h 4.8 km/h 85% 0.0 mm 213 W/m2
11:00 11.9 °C 9.5 °C 1028.8 hPa East 3.2 km/h 4.8 km/h 85% 0.0 mm 211 W/m2
11:05 12.1 °C 9.7 °C 1028.8 hPa ENE 1.4 km/h 3.2 km/h 85% 0.0 mm 223 W/m2
11:10 12.2 °C 9.6 °C 1028.8 hPa ESE 1.4 km/h 6.4 km/h 84% 0.0 mm 230 W/m2
11:15 12.3 °C 9.5 °C 1028.8 hPa East 4.7 km/h 6.4 km/h 83% 0.0 mm 237 W/m2
11:20 12.3 °C 9.7 °C 1028.8 hPa ESE 1.4 km/h 3.2 km/h 84% 0.0 mm 246 W/m2
11:25 12.5 °C 9.7 °C 1028.5 hPa East 1.4 km/h 6.4 km/h 83% 0.0 mm 267 W/m2
11:30 12.6 °C 9.8 °C 1028.5 hPa ENE 3.2 km/h 8 km/h 83% 0.0 mm 279 W/m2
11:35 12.7 °C 9.7 °C 1028.5 hPa ENE 3.2 km/h 3.2 km/h 82% 0.0 mm 276 W/m2
11:40 12.8 °C 9.8 °C 1028.5 hPa ESE 4.7 km/h 8 km/h 82% 0.0 mm 299 W/m2
11:46 13 °C 10 °C 1028.5 hPa East 3.2 km/h 3.2 km/h 82% 0.0 mm 313 W/m2
11:51 13.2 °C 10.2 °C 1028.5 hPa ENE 3.2 km/h 6.4 km/h 82% 0.0 mm 315 W/m2
11:56 13.4 °C 10.2 °C 1028.5 hPa Calm   4.8 km/h 81% 0.0 mm 318 W/m2
12:01 13.6 °C 10.2 °C 1028.5 hPa ESE 3.2 km/h 3.2 km/h 80% 0.0 mm 309 W/m2
12:06 13.8 °C 10.4 °C 1028.5 hPa SSE 1.4 km/h 4.8 km/h 80% 0.0 mm 309 W/m2
12:11 13.9 °C 10.3 °C 1028.5 hPa Calm   3.2 km/h 79% 0.0 mm 325 W/m2
12:16 14.1 °C 10.5 °C 1028.5 hPa ENE 4.7 km/h 4.8 km/h 79% 0.0 mm 334 W/m2
12:21 14.2 °C 10.4 °C 1028.1 hPa NE 3.2 km/h 4.8 km/h 78% 0.0 mm 355 W/m2
12:26 14.2 °C 10.4 °C 1028.1 hPa Calm   3.2 km/h 78% 0.0 mm 343 W/m2
12:31 14.4 °C 10.4 °C 1028.1 hPa NE 3.2 km/h 4.8 km/h 77% 0.0 mm 341 W/m2
12:36 14.4 °C 10.2 °C 1028.1 hPa Calm   1.6 km/h 76% 0.0 mm 341 W/m2
12:41 14.7 °C 10.7 °C 1028.1 hPa East 6.4 km/h 6.4 km/h 77% 0.0 mm 316 W/m2
12:46 14.8 °C 10.4 °C 1028.1 hPa ENE 1.4 km/h 4.8 km/h 75% 0.0 mm 260 W/m2
12:51 14.8 °C 10.4 °C 1028.1 hPa East 1.4 km/h 6.4 km/h 75% 0.0 mm 248 W/m2
12:56 14.8 °C 10.2 °C 1027.8 hPa ESE 4.7 km/h 6.4 km/h 74% 0.0 mm 272 W/m2
13:01 14.8 °C 10.4 °C 1027.8 hPa East 3.2 km/h 4.8 km/h 75% 0.0 mm 278 W/m2
13:06 14.9 °C 10.5 °C 1027.8 hPa ENE 3.2 km/h 4.8 km/h 75% 0.0 mm 278 W/m2
13:11 15 °C 10.4 °C 1027.8 hPa ESE 3.2 km/h 4.8 km/h 74% 0.0 mm 279 W/m2
13:16 15.1 °C 10.3 °C 1027.8 hPa SE 3.2 km/h 6.4 km/h 73% 0.0 mm 308 W/m2
13:21 15.2 °C 10.4 °C 1027.4 hPa Calm   1.6 km/h 73% 0.0 mm 299 W/m2
13:26 15.3 °C 10.5 °C 1027.4 hPa ENE 1.4 km/h 3.2 km/h 73% 0.0 mm 294 W/m2
13:31 15.3 °C 10.3 °C 1027.4 hPa Calm   3.2 km/h 72% 0.0 mm 287 W/m2
13:36 15.4 °C 10.6 °C 1027.4 hPa NW 3.2 km/h 3.2 km/h 73% 0.0 mm 290 W/m2
13:41 15.6 °C 10.6 °C 1027.4 hPa East 1.4 km/h 3.2 km/h 72% 0.0 mm 306 W/m2
13:46 15.7 °C 10.5 °C 1027.1 hPa Calm   3.2 km/h 71% 0.0 mm 309 W/m2
13:51 15.7 °C 9.1 °C 1027.1 hPa NNW 3.2 km/h 8 km/h 65% 0.0 mm 306 W/m2
13:56 15.7 °C 8.4 °C 1027.1 hPa NW 7.9 km/h 12.9 km/h 62% 0.0 mm 318 W/m2
14:01 15.7 °C 8.4 °C 1027.1 hPa North 7.9 km/h 8 km/h 62% 0.0 mm 302 W/m2
14:06 15.8 °C 8.5 °C 1027.1 hPa West 9.7 km/h 12.9 km/h 62% 0.0 mm 323 W/m2
14:11 15.8 °C 8.5 °C 1027.1 hPa NW 4.7 km/h 9.7 km/h 62% 0.0 mm 325 W/m2
14:16 15.8 °C 8.3 °C 1026.8 hPa NW 4.7 km/h 12.9 km/h 61% 0.0 mm 329 W/m2
14:21 15.9 °C 8.1 °C 1026.8 hPa WNW 11.1 km/h 14.5 km/h 60% 0.0 mm 318 W/m2
14:26 15.9 °C 8.1 °C 1026.8 hPa WNW 1.4 km/h 3.2 km/h 60% 0.0 mm 294 W/m2
14:31 15.9 °C 8.1 °C 1026.8 hPa NW 4.7 km/h 11.3 km/h 60% 0.0 mm 274 W/m2
14:36 16 °C 8.2 °C 1026.8 hPa West 6.4 km/h 6.4 km/h 60% 0.0 mm 376 W/m2
14:41 16.1 °C 7.8 °C 1026.8 hPa WNW 7.9 km/h 14.5 km/h 58% 0.0 mm 369 W/m2
14:46 16.2 °C 8.2 °C 1026.8 hPa WNW 4.7 km/h 8 km/h 59% 0.0 mm 295 W/m2
14:51 16.3 °C 7.5 °C 1026.8 hPa West 9.7 km/h 16.1 km/h 56% 0.0 mm 418 W/m2
14:56 16.2 °C 7.7 °C 1026.8 hPa WNW 3.2 km/h 6.4 km/h 57% 0.0 mm 225 W/m2
15:01 16.3 °C 7.5 °C 1026.8 hPa West 13 km/h 16.1 km/h 56% 0.0 mm 295 W/m2
15:06 16.4 °C 7.9 °C 1026.8 hPa West 11.1 km/h 16.1 km/h 57% 0.0 mm 418 W/m2
15:11 16.3 °C 7 °C 1026.4 hPa West 6.4 km/h 12.9 km/h 54% 0.0 mm 211 W/m2
15:16 16.2 °C 7.1 °C 1026.4 hPa West 6.4 km/h 16.1 km/h 55% 0.0 mm 207 W/m2
15:21 16.1 °C 7.1 °C 1026.4 hPa NW 11.1 km/h 16.1 km/h 55% 0.0 mm 262 W/m2
15:26 16 °C 7.2 °C 1026.4 hPa WSW 1.4 km/h 8 km/h 56% 0.0 mm 237 W/m2
15:31 16.1 °C 7.3 °C 1026.4 hPa NNW 6.4 km/h 16.1 km/h 56% 0.0 mm 230 W/m2
15:36 16.1 °C 7.1 °C 1026.4 hPa NNW 3.2 km/h 12.9 km/h 55% 0.0 mm 253 W/m2
15:41 16.1 °C 6.8 °C 1026.1 hPa NNW 1.4 km/h 14.5 km/h 54% 0.0 mm 216 W/m2
15:46 16.1 °C 7.1 °C 1026.1 hPa West 9.7 km/h 11.3 km/h 55% 0.0 mm 186 W/m2
15:51 16.1 °C 7.1 °C 1026.1 hPa WNW 6.4 km/h 11.3 km/h 55% 0.0 mm 241 W/m2
15:56 16.2 °C 7.1 °C 1026.1 hPa WNW 6.4 km/h 14.5 km/h 55% 0.0 mm 179 W/m2
16:01 16.2 °C 7.1 °C 1026.1 hPa West 4.7 km/h 9.7 km/h 55% 0.0 mm 148 W/m2
16:06 16.1 °C 7.3 °C 1026.1 hPa WNW 6.4 km/h 9.7 km/h 56% 0.0 mm 202 W/m2
16:11 16.1 °C 7.3 °C 1026.1 hPa NW 6.4 km/h 8 km/h 56% 0.0 mm 167 W/m2
16:16 15.9 °C 6.9 °C 1026.1 hPa NW 9.7 km/h 14.5 km/h 55% 0.0 mm 218 W/m2
16:21 15.9 °C 7.1 °C 1026.1 hPa WNW 3.2 km/h 11.3 km/h 56% 0.0 mm 176 W/m2
16:26 15.9 °C 7.1 °C 1025.7 hPa West 6.4 km/h 11.3 km/h 56% 0.0 mm 134 W/m2
16:31 15.8 °C 7 °C 1025.7 hPa NW 4.7 km/h 9.7 km/h 56% 0.0 mm 125 W/m2
16:36 15.7 °C 7.2 °C 1025.7 hPa North 7.9 km/h 9.7 km/h 57% 0.0 mm 118 W/m2
16:41 15.6 °C 7.4 °C 1025.7 hPa NNW 3.2 km/h 11.3 km/h 58% 0.0 mm 123 W/m2
16:46 15.7 °C 7.5 °C 1025.7 hPa WNW 3.2 km/h 6.4 km/h 58% 0.0 mm 135 W/m2
16:52 15.7 °C 7.5 °C 1025.7 hPa West 6.4 km/h 11.3 km/h 58% 0.0 mm 118 W/m2
16:57 15.6 °C 7.4 °C 1025.4 hPa WSW 3.2 km/h 6.4 km/h 58% 0.0 mm 90 W/m2
17:02 15.5 °C 7.5 °C 1025.7 hPa SW 1.4 km/h 8 km/h 59% 0.0 mm 69 W/m2
17:07 15.4 °C 7.7 °C 1025.4 hPa NW 4.7 km/h 4.8 km/h 60% 0.0 mm 130 W/m2
17:12 15.4 °C 7.7 °C 1025.4 hPa Calm   6.4 km/h 60% 0.0 mm 81 W/m2
17:17 15.4 °C 7.7 °C 1025.4 hPa WNW 3.2 km/h 4.8 km/h 60% 0.0 mm 88 W/m2
17:22 15.4 °C 7.9 °C 1025.4 hPa West 1.4 km/h 1.6 km/h 61% 0.0 mm 144 W/m2
17:27 15.6 °C 7.9 °C 1025.4 hPa Calm   1.6 km/h 60% 0.0 mm 146 W/m2
17:32 15.8 °C 8.3 °C 1025.4 hPa West 1.4 km/h 4.8 km/h 61% 0.0 mm 130 W/m2
17:37 15.9 °C 7.9 °C 1025.4 hPa Calm   3.2 km/h 59% 0.0 mm 86 W/m2
17:42 15.9 °C 7.9 °C 1025.4 hPa West 3.2 km/h 3.2 km/h 59% 0.0 mm 63 W/m2
17:47 15.8 °C 8 °C 1025.4 hPa WNW 1.4 km/h 4.8 km/h 60% 0.0 mm 47 W/m2
17:52 15.6 °C 7.9 °C 1025.4 hPa WNW 3.2 km/h 4.8 km/h 60% 0.0 mm 39 W/m2
17:57 15.3 °C 7.6 °C 1025.4 hPa West 4.7 km/h 4.8 km/h 60% 0.0 mm 35 W/m2
18:02 15.1 °C 7.6 °C 1025.4 hPa WSW 3.2 km/h 6.4 km/h 61% 0.0 mm 33 W/m2
18:07 14.9 °C 7.7 °C 1025.1 hPa Calm   3.2 km/h 62% 0.0 mm 26 W/m2
18:12 14.8 °C 7.8 °C 1025.1 hPa West 1.4 km/h 1.6 km/h 63% 0.0 mm 23 W/m2
18:17 14.6 °C 7.9 °C 1025.1 hPa Calm   1.6 km/h 64% 0.0 mm 19 W/m2
18:22 14.3 °C 8 °C 1025.1 hPa West 1.4 km/h 3.2 km/h 66% 0.0 mm 16 W/m2
18:27 14 °C 7.7 °C 1025.4 hPa West 1.4 km/h 3.2 km/h 66% 0.0 mm 14 W/m2
18:32 13.7 °C 7.7 °C 1025.4 hPa Calm   1.6 km/h 67% 0.0 mm 11 W/m2
18:37 13.4 °C 7.6 °C 1025.4 hPa Calm     68% 0.0 mm 9 W/m2
18:42 13.2 °C 7.6 °C 1025.4 hPa Calm     69% 0.0 mm 7 W/m2
18:47 12.9 °C 7.6 °C 1025.4 hPa West 1.4 km/h 1.6 km/h 70% 0.0 mm 0 W/m2
18:52 12.6 °C 7.3 °C 1025.4 hPa Calm   1.6 km/h 70% 0.0 mm 0 W/m2
18:57 12.3 °C 7.2 °C 1025.4 hPa Calm   1.6 km/h 71% 0.0 mm 0 W/m2
19:02 12.1 °C 7.2 °C 1025.4 hPa Calm     72% 0.0 mm 0 W/m2
19:07 11.8 °C 7.1 °C 1025.4 hPa Calm     73% 0.0 mm 0 W/m2
19:12 11.7 °C 7.2 °C 1025.4 hPa Calm     74% 0.0 mm 0 W/m2
19:17 11.5 °C 7.2 °C 1025.4 hPa Calm     75% 0.0 mm 0 W/m2
19:22 11.3 °C 7 °C 1025.4 hPa Calm     75% 0.0 mm 0 W/m2
19:27 11.1 °C 7 °C 1025.4 hPa Calm     76% 0.0 mm 0 W/m2
19:32 10.9 °C 7 °C 1025.4 hPa Calm     77% 0.0 mm 0 W/m2
19:37 10.8 °C 6.9 °C 1025.4 hPa Calm     77% 0.0 mm 0 W/m2
19:42 10.7 °C 7 °C 1025.4 hPa Calm     78% 0.0 mm 0 W/m2
19:47 10.6 °C 6.9 °C 1025.4 hPa Calm     78% 0.0 mm 0 W/m2
19:52 10.4 °C 6.7 °C 1025.4 hPa Calm     78% 0.0 mm 0 W/m2
19:57 10.3 °C 6.8 °C 1025.4 hPa Calm     79% 0.0 mm 0 W/m2
20:02 10.2 °C 6.7 °C 1025.4 hPa Calm     79% 0.0 mm 0 W/m2
20:07 10.1 °C 6.8 °C 1025.4 hPa Calm     80% 0.0 mm 0 W/m2
20:12 10 °C 6.7 °C 1025.4 hPa Calm     80% 0.0 mm 0 W/m2
20:17 9.9 °C 6.6 °C 1025.4 hPa Calm     80% 0.0 mm 0 W/m2
20:22 9.8 °C 6.5 °C 1025.4 hPa Calm     80% 0.0 mm 0 W/m2
20:27 9.7 °C 6.6 °C 1025.4 hPa Calm     81% 0.0 mm 0 W/m2
20:32 9.6 °C 6.5 °C 1025.7 hPa Calm     81% 0.0 mm 0 W/m2
20:37 9.5 °C 6.4 °C 1025.7 hPa Calm     81% 0.0 mm 0 W/m2
20:42 9.4 °C 6.3 °C 1025.7 hPa Calm     81% 0.0 mm 0 W/m2
20:47 9.3 °C 6.4 °C 1025.7 hPa Calm     82% 0.0 mm 0 W/m2
20:52 9.1 °C 6.2 °C 1025.7 hPa Calm     82% 0.0 mm 0 W/m2
20:57 9 °C 6.3 °C 1025.7 hPa Calm     83% 0.0 mm 0 W/m2
21:02 8.9 °C 6.2 °C 1025.7 hPa Calm     83% 0.0 mm 0 W/m2
21:07 8.8 °C 6.2 °C 1025.7 hPa Calm     84% 0.0 mm 0 W/m2
21:12 8.7 °C 6.1 °C 1025.4 hPa Calm     84% 0.0 mm 0 W/m2
21:17 8.6 °C 6.2 °C 1025.4 hPa Calm     85% 0.0 mm 0 W/m2
21:22 8.4 °C 6 °C 1025.7 hPa Calm     85% 0.0 mm 0 W/m2
21:27 8.3 °C 5.9 °C 1025.4 hPa Calm     85% 0.0 mm 0 W/m2
21:32 8.2 °C 5.8 °C 1025.7 hPa Calm     85% 0.0 mm 0 W/m2
21:37 8.1 °C 5.9 °C 1025.7 hPa Calm     86% 0.0 mm 0 W/m2
21:42 8 °C 5.8 °C 1025.7 hPa Calm     86% 0.0 mm 0 W/m2
21:47 7.9 °C 5.7 °C 1025.7 hPa Calm     86% 0.0 mm 0 W/m2
21:52 7.7 °C 5.5 °C 1025.7 hPa Calm     86% 0.0 mm 0 W/m2
21:57 7.6 °C 5.6 °C 1025.7 hPa Calm     87% 0.0 mm 0 W/m2
22:02 7.5 °C 5.5 °C 1025.7 hPa Calm     87% 0.0 mm 0 W/m2
22:07 7.4 °C 5.5 °C 1025.4 hPa Calm     88% 0.0 mm 0 W/m2
22:12 7.4 °C 5.5 °C 1025.4 hPa Calm     88% 0.0 mm 0 W/m2
22:17 7.4 °C 5.7 °C 1025.4 hPa Calm     89% 0.0 mm 0 W/m2
22:22 7.3 °C 5.6 °C 1025.4 hPa Calm     89% 0.0 mm 0 W/m2
22:27 7.3 °C 5.6 °C 1025.4 hPa Calm     89% 0.0 mm 0 W/m2
22:32 7.2 °C 5.5 °C 1025.4 hPa Calm     89% 0.0 mm 0 W/m2
22:37 7.2 °C 5.7 °C 1025.4 hPa Calm     90% 0.0 mm 0 W/m2
22:42 7.1 °C 5.6 °C 1025.4 hPa Calm     90% 0.0 mm 0 W/m2
22:47 7.1 °C 5.6 °C 1025.4 hPa Calm     90% 0.0 mm 0 W/m2
22:52 7 °C 5.5 °C 1025.4 hPa Calm     90% 0.0 mm 0 W/m2
22:58 6.9 °C 5.4 °C 1025.4 hPa Calm     90% 0.0 mm 0 W/m2
23:03 6.8 °C 5.3 °C 1025.4 hPa Calm     90% 0.0 mm 0 W/m2
23:08 6.8 °C 5.3 °C 1025.4 hPa Calm     90% 0.0 mm 0 W/m2
23:13 6.8 °C 5.3 °C 1025.4 hPa Calm     90% 0.0 mm 0 W/m2
23:18 6.7 °C 5.2 °C 1025.4 hPa Calm     90% 0.0 mm 0 W/m2
23:23 6.6 °C 5.2 °C 1025.4 hPa Calm     91% 0.0 mm 0 W/m2
23:28 6.6 °C 5.2 °C 1025.4 hPa Calm     91% 0.0 mm 0 W/m2
23:33 6.5 °C 5.1 °C 1025.4 hPa Calm     91% 0.0 mm 0 W/m2
23:38 6.4 °C 5 °C 1025.4 hPa Calm     91% 0.0 mm 0 W/m2
23:43 6.4 °C 5 °C 1025.4 hPa Calm     91% 0.0 mm 0 W/m2
23:48 6.5 °C 5.3 °C 1025.4 hPa Calm     92% 0.0 mm 0 W/m2
23:53 6.7 °C 5.5 °C 1025.4 hPa Calm     92% 0.0 mm 0 W/m2
23:58 6.7 °C 5.3 °C 1025.4 hPa Calm     91% 0.0 mm 0 W/m2
Juneau County Weather
Compliments of Weather Underground - 4 mb